Time;durP1;ratioP1;P1;durP2;ratioP2;P2;SDS_P1;SDS_P2;PMS_P1;PMS_P2;Temp;Humidity;BMP_temperature;BMP_pressure;BME280_temperature;BME280_humidity;BME280_pressure;Samples;Min_cycle;Max_cycle;Signal;HPM_P1;HPM_P2
2023/09/04 00:00:07;;;;;;;;;;;;;;;;;;4965595;28;19928;-66
2023/09/04 00:02:32;;;;;;;;;;;;;;;;;;4966772;28;20051;-66
2023/09/04 00:04:57;;;;;;;;;;;;;;;;;;4946335;28;19922;-66
2023/09/04 00:07:22;;;;;;;;;;;;;;;;;;4964725;28;20448;-66
2023/09/04 00:09:48;;;;;;;;;;;;;;;;;;4981539;28;19922;-66
2023/09/04 00:12:13;;;;;;;;;;;;;;;;;;4967600;28;19949;-67
2023/09/04 00:14:39;;;;;;;;;;;;;;;;;;4944400;28;20673;-66
2023/09/04 00:17:04;;;;;;;;;;;;;;;;;;4963112;28;19921;-66
2023/09/04 00:19:29;;;;;;;;;;;;;;;;;;4963740;28;19925;-66
2023/09/04 00:21:55;;;;;;;;;;;;;;;;;;4946765;28;19930;-66
2023/09/04 00:24:22;;;;;;;;;;;;;;;;;;4966011;28;20453;-66
2023/09/04 00:26:48;;;;;;;;;;;;;;;;;;4948252;28;19918;-66
2023/09/04 00:29:13;;;;;;;;;;;;;;;;;;4946007;28;19922;-66
2023/09/04 00:31:38;;;;;;;;;;;;;;;;;;4946296;28;20005;-65
2023/09/04 00:34:03;;;;;;;;;;;;;;;;;;4966396;28;20039;-67
2023/09/04 00:36:31;;;;;;;;;;;;;;;;;;4946659;28;19921;-66
2023/09/04 00:38:56;;;;;;;;;;;;;;;;;;4965882;28;19964;-67
2023/09/04 00:41:22;;;;;;;;;;;;;;;;;;4966156;28;19965;-66
2023/09/04 00:43:47;;;;;;;;;;;;;;;;;;4966195;28;19928;-66
2023/09/04 00:46:12;;;;;;;;;;;;;;;;;;4981381;28;20469;-66
2023/09/04 00:48:37;;;;;;;;;;;;;;;;;;4967650;28;20029;-66
2023/09/04 00:51:03;;;;;;;;;;;;;;;;;;4966326;28;19917;-65
2023/09/04 00:53:29;;;;;;;;;;;;;;;;;;4967603;28;19922;-66
2023/09/04 00:55:54;;;;;;;;;;;;;;;;;;4967292;28;19945;-66
2023/09/04 00:58:20;;;;;;;;;;;;;;;;;;4966486;28;19929;-66
2023/09/04 01:00:48;;;;;;;;;;;;;;;;;;4981526;28;19921;-66
2023/09/04 01:03:13;;;;;;;;;;;;;;;;;;4980034;28;19918;-66
2023/09/04 01:05:38;;;;;;;;;;;;;;;;;;4966111;28;19979;-66
2023/09/04 01:08:04;;;;;;;;;;;;;;;;;;4965365;28;20004;-67
2023/09/04 01:10:30;;;;;;;;;;;;;;;;;;4963589;28;19922;-67
2023/09/04 01:12:55;;;;;;;;;;;;;;;;;;4946014;28;19918;-66
2023/09/04 01:15:20;;;;;;;;;;;;;;;;;;4963826;28;19988;-66
2023/09/04 01:17:46;;;;;;;;;;;;;;;;;;4981491;28;20053;-66
2023/09/04 01:20:11;;;;;;;;;;;;;;;;;;4942147;28;19941;-66
2023/09/04 01:22:36;;;;;;;;;;;;;;;;;;4945805;28;20028;-65
2023/09/04 01:28:18;;;;;;;;;;;;;;;;;;4966934;28;20052;-67
2023/09/04 01:30:43;;;;;;;;;;;;;;;;;;4965698;28;21466;-66
2023/09/04 01:33:09;;;;;;;;;;;;;;;;;;4964773;28;19922;-66
2023/09/04 01:35:34;;;;;;;;;;;;;;;;;;4964375;28;20797;-65
2023/09/04 01:37:59;;;;;;;;;;;;;;;;;;4981779;28;19917;-66
2023/09/04 01:40:25;;;;;;;;;;;;;;;;;;4966357;28;20372;-65
2023/09/04 01:42:50;;;;;;;;;;;;;;;;;;4965035;28;20389;-65
2023/09/04 01:45:16;;;;;;;;;;;;;;;;;;4960330;28;19922;-66
2023/09/04 01:51:00;;;;;;;;;;;;;;;;;;4964091;28;19924;-66
2023/09/04 01:53:25;;;;;;;;;;;;;;;;;;4966719;28;20288;-66
2023/09/04 01:55:51;;;;;;;;;;;;;;;;;;4966249;28;19918;-66
2023/09/04 01:58:16;;;;;;;;;;;;;;;;;;4966545;28;20921;-65
2023/09/04 02:00:43;;;;;;;;;;;;;;;;;;4981053;28;21502;-65
2023/09/04 02:03:13;;;;;;;;;;;;;;;;;;4980332;28;21908;-66
2023/09/04 02:05:42;;;;;;;;;;;;;;;;;;4943347;28;20048;-66
2023/09/04 02:08:08;;;;;;;;;;;;;;;;;;4947213;28;19922;-67
2023/09/04 02:10:33;;;;;;;;;;;;;;;;;;4965857;28;19976;-66
2023/09/04 02:12:58;;;;;;;;;;;;;;;;;;4978472;28;19922;-65
2023/09/04 02:15:26;;;;;;;;;;;;;;;;;;4965698;28;20618;-65
2023/09/04 02:17:54;;;;;;;;;;;;;;;;;;4964098;28;19918;-65
2023/09/04 02:20:20;;;;;;;;;;;;;;;;;;4946134;28;19952;-66
2023/09/04 02:22:45;;;;;;;;;;;;;;;;;;4946179;28;19921;-66
2023/09/04 02:25:12;;;;;;;;;;;;;;;;;;4980518;28;20339;-65
2023/09/04 02:27:38;;;;;;;;;;;;;;;;;;4944538;28;19922;-66
2023/09/04 02:30:07;;;;;;;;;;;;;;;;;;4973122;28;19922;-66
2023/09/04 02:32:33;;;;;;;;;;;;;;;;;;4962446;28;19932;-66
2023/09/04 02:35:01;;;;;;;;;;;;;;;;;;4978739;28;19918;-66
2023/09/04 02:37:27;;;;;;;;;;;;;;;;;;4980141;28;19964;-66
2023/09/04 02:39:52;;;;;;;;;;;;;;;;;;4979940;28;19957;-66
2023/09/04 02:42:17;;;;;;;;;;;;;;;;;;4981125;28;19930;-66
2023/09/04 02:44:42;;;;;;;;;;;;;;;;;;4944953;28;19928;-66
2023/09/04 02:47:08;;;;;;;;;;;;;;;;;;4963884;28;20441;-65
2023/09/04 02:49:35;;;;;;;;;;;;;;;;;;4963354;28;19952;-65
2023/09/04 02:52:03;;;;;;;;;;;;;;;;;;4964905;28;19922;-67
2023/09/04 02:54:31;;;;;;;;;;;;;;;;;;4980310;28;19967;-66
2023/09/04 02:56:56;;;;;;;;;;;;;;;;;;4958429;28;19977;-66
2023/09/04 02:59:21;;;;;;;;;;;;;;;;;;4945548;28;20040;-67
2023/09/04 03:01:47;;;;;;;;;;;;;;;;;;4965268;28;20009;-67
2023/09/04 03:04:15;;;;;;;;;;;;;;;;;;4964932;28;20027;-67
2023/09/04 03:06:40;;;;;;;;;;;;;;;;;;4964195;28;20524;-66
2023/09/04 03:09:05;;;;;;;;;;;;;;;;;;4981551;28;20382;-66
2023/09/04 03:11:31;;;;;;;;;;;;;;;;;;4964559;28;19957;-66
2023/09/04 03:13:59;;;;;;;;;;;;;;;;;;4946883;28;19928;-66
2023/09/04 03:16:24;;;;;;;;;;;;;;;;;;4950602;28;19922;-66
2023/09/04 03:18:54;;;;;;;;;;;;;;;;;;4978384;28;19972;-66
2023/09/04 03:21:19;;;;;;;;;;;;;;;;;;4982503;28;19961;-65
2023/09/04 03:23:47;;;;;;;;;;;;;;;;;;4966158;28;20115;-64
2023/09/04 03:26:13;;;;;;;;;;;;;;;;;;4962509;28;20845;-66
2023/09/04 03:28:43;;;;;;;;;;;;;;;;;;4948661;28;19921;-66
2023/09/04 03:31:09;;;;;;;;;;;;;;;;;;4983765;28;19921;-67
2023/09/04 03:33:39;;;;;;;;;;;;;;;;;;4983365;28;19925;-66
2023/09/04 03:36:09;;;;;;;;;;;;;;;;;;4967313;28;19918;-66
2023/09/04 03:38:35;;;;;;;;;;;;;;;;;;4983459;28;19969;-66
2023/09/04 03:41:03;;;;;;;;;;;;;;;;;;4967448;28;19926;-65
2023/09/04 03:43:29;;;;;;;;;;;;;;;;;;4971110;28;19917;-66
2023/09/04 03:45:59;;;;;;;;;;;;;;;;;;4968103;28;19944;-66
2023/09/04 03:48:27;;;;;;;;;;;;;;;;;;4984062;28;20447;-66
2023/09/04 03:50:53;;;;;;;;;;;;;;;;;;4965183;28;19966;-67
2023/09/04 03:53:21;;;;;;;;;;;;;;;;;;4967743;28;19937;-66
2023/09/04 03:55:51;;;;;;;;;;;;;;;;;;4969360;28;19918;-67
2023/09/04 03:58:16;;;;;;;;;;;;;;;;;;4967491;28;19971;-65
2023/09/04 04:00:41;;;;;;;;;;;;;;;;;;4945579;28;19925;-65
2023/09/04 04:03:06;;;;;;;;;;;;;;;;;;4966091;28;20002;-66
2023/09/04 04:05:32;;;;;;;;;;;;;;;;;;4966841;28;19973;-66
2023/09/04 04:08:00;;;;;;;;;;;;;;;;;;4969088;28;20297;-66
2023/09/04 04:10:28;;;;;;;;;;;;;;;;;;4949032;28;19921;-66
2023/09/04 04:12:53;;;;;;;;;;;;;;;;;;4981347;28;19929;-66
2023/09/04 04:15:24;;;;;;;;;;;;;;;;;;4967490;28;19921;-66
2023/09/04 04:17:49;;;;;;;;;;;;;;;;;;4962302;28;21795;-68
2023/09/04 04:20:15;;;;;;;;;;;;;;;;;;4947533;28;19925;-66
2023/09/04 04:22:40;;;;;;;;;;;;;;;;;;4968094;28;20037;-66
2023/09/04 04:25:05;;;;;;;;;;;;;;;;;;4966161;28;20418;-67
2023/09/04 04:27:31;;;;;;;;;;;;;;;;;;4946215;28;20711;-68
2023/09/04 04:29:58;;;;;;;;;;;;;;;;;;4947541;28;19933;-67
2023/09/04 04:32:27;;;;;;;;;;;;;;;;;;4965963;28;20459;-67
2023/09/04 04:34:55;;;;;;;;;;;;;;;;;;4967134;28;19929;-66
2023/09/04 04:37:23;;;;;;;;;;;;;;;;;;4951646;28;19976;-66
2023/09/04 04:39:48;;;;;;;;;;;;;;;;;;4966005;28;19917;-66
2023/09/04 04:42:14;;;;;;;;;;;;;;;;;;4981071;28;20332;-67
2023/09/04 04:44:41;;;;;;;;;;;;;;;;;;4967517;28;20353;-67
2023/09/04 04:47:07;;;;;;;;;;;;;;;;;;4962240;28;19923;-66
2023/09/04 04:49:34;;;;;;;;;;;;;;;;;;4982276;28;19922;-67
2023/09/04 04:52:02;;;;;;;;;;;;;;;;;;4980553;28;19972;-66
2023/09/04 04:54:33;;;;;;;;;;;;;;;;;;4958776;28;19922;-67
2023/09/04 04:57:02;;;;;;;;;;;;;;;;;;4982101;28;19972;-67
2023/09/04 04:59:27;;;;;;;;;;;;;;;;;;4964447;28;19921;-67
2023/09/04 05:01:58;;;;;;;;;;;;;;;;;;4944225;28;19990;-67
2023/09/04 05:04:26;;;;;;;;;;;;;;;;;;4980499;28;20758;-67
2023/09/04 05:06:54;;;;;;;;;;;;;;;;;;4946776;28;19934;-66
2023/09/04 05:09:21;;;;;;;;;;;;;;;;;;4966562;28;20001;-66
2023/09/04 05:11:49;;;;;;;;;;;;;;;;;;4957105;28;20014;-67
2023/09/04 05:14:17;;;;;;;;;;;;;;;;;;4963775;28;20009;-67
2023/09/04 05:16:45;;;;;;;;;;;;;;;;;;4947482;28;20739;-67
2023/09/04 05:19:12;;;;;;;;;;;;;;;;;;4980136;28;20052;-67
2023/09/04 05:21:39;;;;;;;;;;;;;;;;;;4967527;28;20020;-67
2023/09/04 05:24:05;;;;;;;;;;;;;;;;;;4966103;28;19918;-68
2023/09/04 05:26:33;;;;;;;;;;;;;;;;;;4946243;28;19941;-67
2023/09/04 05:28:59;;;;;;;;;;;;;;;;;;4964191;28;20356;-65
2023/09/04 05:31:24;;;;;;;;;;;;;;;;;;4967515;28;20004;-66
2023/09/04 05:33:52;;;;;;;;;;;;;;;;;;4982082;28;19995;-66
2023/09/04 05:36:18;;;;;;;;;;;;;;;;;;4940322;28;20364;-66
2023/09/04 05:38:46;;;;;;;;;;;;;;;;;;4966240;28;19922;-66
2023/09/04 05:41:12;;;;;;;;;;;;;;;;;;4982590;28;19922;-67
2023/09/04 05:43:37;;;;;;;;;;;;;;;;;;4980185;28;19929;-67
2023/09/04 05:46:03;;;;;;;;;;;;;;;;;;4967823;28;20532;-67
2023/09/04 05:48:31;;;;;;;;;;;;;;;;;;4980916;28;19921;-65
2023/09/04 05:50:56;;;;;;;;;;;;;;;;;;4964577;28;19922;-65
2023/09/04 05:53:24;;;;;;;;;;;;;;;;;;4980897;28;19918;-66
2023/09/04 05:55:52;;;;;;;;;;;;;;;;;;4981208;28;19972;-66
2023/09/04 05:58:17;;;;;;;;;;;;;;;;;;4945379;28;19929;-66
2023/09/04 06:00:42;;;;;;;;;;;;;;;;;;4965281;28;19965;-66
2023/09/04 06:03:09;;;;;;;;;;;;;;;;;;4945109;28;19947;-66
2023/09/04 06:05:34;;;;;;;;;;;;;;;;;;4945051;28;20396;-65
2023/09/04 06:07:59;;;;;;;;;;;;;;;;;;4964543;28;19928;-67
2023/09/04 06:10:25;;;;;;;;;;;;;;;;;;4965142;28;19995;-66
2023/09/04 06:12:52;;;;;;;;;;;;;;;;;;4964396;28;20021;-66
2023/09/04 06:15:17;;;;;;;;;;;;;;;;;;4964767;28;20811;-65
2023/09/04 06:17:43;;;;;;;;;;;;;;;;;;4964938;28;19945;-66
2023/09/04 06:20:08;;;;;;;;;;;;;;;;;;4964852;28;20981;-66
2023/09/04 06:22:36;;;;;;;;;;;;;;;;;;4945184;28;19932;-66
2023/09/04 06:25:01;;;;;;;;;;;;;;;;;;4964296;28;19918;-66
2023/09/04 06:27:29;;;;;;;;;;;;;;;;;;4944525;28;19929;-67
2023/09/04 06:29:54;;;;;;;;;;;;;;;;;;4944347;28;21060;-66
2023/09/04 06:32:22;;;;;;;;;;;;;;;;;;4963174;28;19921;-66
2023/09/04 06:34:47;;;;;;;;;;;;;;;;;;4942575;28;19929;-68
2023/09/04 06:37:12;;;;;;;;;;;;;;;;;;4961790;28;20520;-66
2023/09/04 06:39:38;;;;;;;;;;;;;;;;;;4964366;28;19918;-66
2023/09/04 06:42:03;;;;;;;;;;;;;;;;;;4945778;28;19925;-66
2023/09/04 06:44:29;;;;;;;;;;;;;;;;;;4964707;28;19918;-67
2023/09/04 06:46:54;;;;;;;;;;;;;;;;;;4979224;28;20054;-68
2023/09/04 06:49:19;;;;;;;;;;;;;;;;;;4944888;28;19929;-68
2023/09/04 06:51:45;;;;;;;;;;;;;;;;;;4978775;28;20600;-67
2023/09/04 06:54:13;;;;;;;;;;;;;;;;;;4978747;28;19930;-67
2023/09/04 06:56:38;;;;;;;;;;;;;;;;;;4979785;28;19972;-67
2023/09/04 06:59:06;;;;;;;;;;;;;;;;;;4961453;28;19937;-67
2023/09/04 07:01:31;;;;;;;;;;;;;;;;;;4982987;28;19926;-67
2023/09/04 07:03:57;;;;;;;;;;;;;;;;;;4947913;28;19918;-67
2023/09/04 07:06:25;;;;;;;;;;;;;;;;;;4969607;28;19917;-67
2023/09/04 07:08:50;;;;;;;;;;;;;;;;;;4969492;28;19979;-67
2023/09/04 07:11:15;;;;;;;;;;;;;;;;;;4968682;28;19922;-67
2023/09/04 07:13:41;;;;;;;;;;;;;;;;;;4970157;28;20332;-68
2023/09/04 07:16:07;;;;;;;;;;;;;;;;;;4967365;28;19917;-67
2023/09/04 07:18:32;;;;;;;;;;;;;;;;;;4984774;28;20253;-68
2023/09/04 07:20:57;;;;;;;;;;;;;;;;;;4981118;28;19996;-70
2023/09/04 07:23:27;;;;;;;;;;;;;;;;;;4947860;28;19921;-70
2023/09/04 07:25:53;;;;;;;;;;;;;;;;;;4982744;28;19918;-69
2023/09/04 07:28:21;;;;;;;;;;;;;;;;;;4967380;28;20040;-68
2023/09/04 07:30:46;;;;;;;;;;;;;;;;;;4977567;28;20013;-69
2023/09/04 07:33:15;;;;;;;;;;;;;;;;;;4946230;28;19944;-69
2023/09/04 07:35:41;;;;;;;;;;;;;;;;;;4982189;28;20009;-67
2023/09/04 07:38:07;;;;;;;;;;;;;;;;;;4945752;28;19913;-67
2023/09/04 07:40:35;;;;;;;;;;;;;;;;;;4968983;28;19925;-67
2023/09/04 07:43:01;;;;;;;;;;;;;;;;;;4965823;28;19992;-69
2023/09/04 07:45:27;;;;;;;;;;;;;;;;;;4946593;28;19996;-67
2023/09/04 07:47:52;;;;;;;;;;;;;;;;;;4980268;28;21054;-69
2023/09/04 07:50:18;;;;;;;;;;;;;;;;;;4981739;28;20547;-68
2023/09/04 07:52:45;;;;;;;;;;;;;;;;;;4982858;28;19917;-68
2023/09/04 07:55:10;;;;;;;;;;;;;;;;;;4947902;28;20470;-68
2023/09/04 07:57:36;;;;;;;;;;;;;;;;;;4968112;28;19921;-68
2023/09/04 08:00:02;;;;;;;;;;;;;;;;;;4980865;28;20366;-68
2023/09/04 08:02:28;;;;;;;;;;;;;;;;;;4965444;28;19926;-67
2023/09/04 08:04:53;;;;;;;;;;;;;;;;;;4967085;28;19924;-69
2023/09/04 08:07:18;;;;;;;;;;;;;;;;;;4983262;28;19921;-69
2023/09/04 08:09:44;;;;;;;;;;;;;;;;;;4966534;28;20004;-69
2023/09/04 08:12:09;;;;;;;;;;;;;;;;;;4944385;28;20012;-68
2023/09/04 08:14:36;;;;;;;;;;;;;;;;;;4947343;28;20468;-68
2023/09/04 08:17:01;;;;;;;;;;;;;;;;;;4980883;28;19922;-68
2023/09/04 08:19:27;;;;;;;;;;;;;;;;;;4965151;28;19973;-69
2023/09/04 08:21:52;;;;;;;;;;;;;;;;;;4982132;28;19933;-69
2023/09/04 08:24:17;;;;;;;;;;;;;;;;;;4980534;28;19925;-68
2023/09/04 08:26:43;;;;;;;;;;;;;;;;;;4947754;28;21871;-69
2023/09/04 08:29:08;;;;;;;;;;;;;;;;;;4965323;28;19921;-68
2023/09/04 08:31:34;;;;;;;;;;;;;;;;;;4965392;28;19922;-69
2023/09/04 08:33:59;;;;;;;;;;;;;;;;;;4966774;28;19917;-68
2023/09/04 08:36:24;;;;;;;;;;;;;;;;;;4966231;28;20664;-68
2023/09/04 08:38:50;;;;;;;;;;;;;;;;;;4967013;28;19921;-70
2023/09/04 08:41:18;;;;;;;;;;;;;;;;;;4964702;28;20001;-69
2023/09/04 08:43:46;;;;;;;;;;;;;;;;;;4967344;28;19948;-68
2023/09/04 08:46:11;;;;;;;;;;;;;;;;;;4945394;28;20268;-69
2023/09/04 08:48:37;;;;;;;;;;;;;;;;;;4967082;28;19921;-69
2023/09/04 08:51:02;;;;;;;;;;;;;;;;;;4958654;28;19926;-69
2023/09/04 08:53:28;;;;;;;;;;;;;;;;;;4980966;28;19981;-70
2023/09/04 08:55:53;;;;;;;;;;;;;;;;;;4982803;28;19933;-70
2023/09/04 08:58:19;;;;;;;;;;;;;;;;;;4981011;28;19963;-69
2023/09/04 09:00:44;;;;;;;;;;;;;;;;;;4980807;28;19984;-68
2023/09/04 09:03:09;;;;;;;;;;;;;;;;;;4980431;28;19957;-68
2023/09/04 09:05:35;;;;;;;;;;;;;;;;;;4943171;28;21899;-70
2023/09/04 09:08:00;;;;;;;;;;;;;;;;;;4981302;28;19949;-69
2023/09/04 09:10:25;;;;;;;;;;;;;;;;;;4964743;28;19918;-69
2023/09/04 09:12:51;;;;;;;;;;;;;;;;;;4965170;28;19929;-69
2023/09/04 09:15:17;;;;;;;;;;;;;;;;;;4964630;28;19925;-73
2023/09/04 09:17:42;;;;;;;;;;;;;;;;;;4963272;28;19968;-69
2023/09/04 09:20:10;;;;;;;;;;;;;;;;;;4966904;28;19922;-69
2023/09/04 09:22:35;;;;;;;;;;;;;;;;;;4979948;28;20012;-70
2023/09/04 09:25:01;;;;;;;;;;;;;;;;;;4965860;28;19921;-69
2023/09/04 09:27:26;;;;;;;;;;;;;;;;;;4965584;28;19924;-68
2023/09/04 09:29:51;;;;;;;;;;;;;;;;;;4964968;28;20424;-69
2023/09/04 09:32:17;;;;;;;;;;;;;;;;;;4944136;28;20042;-70
2023/09/04 09:34:42;;;;;;;;;;;;;;;;;;4965646;28;20120;-70
2023/09/04 09:37:08;;;;;;;;;;;;;;;;;;4964674;28;19933;-68
2023/09/04 09:39:34;;;;;;;;;;;;;;;;;;4979809;28;19917;-70
2023/09/04 09:41:59;;;;;;;;;;;;;;;;;;4966555;28;20353;-69
2023/09/04 09:44:24;;;;;;;;;;;;;;;;;;4963271;28;19929;-69
2023/09/04 09:46:50;;;;;;;;;;;;;;;;;;4964522;28;20340;-71
2023/09/04 09:49:16;;;;;;;;;;;;;;;;;;4979881;28;19953;-71
2023/09/04 09:51:41;;;;;;;;;;;;;;;;;;4979743;28;19965;-71
2023/09/04 09:54:08;;;;;;;;;;;;;;;;;;4978325;28;19921;-70
2023/09/04 09:56:33;;;;;;;;;;;;;;;;;;4966272;28;19992;-70
2023/09/04 09:58:59;;;;;;;;;;;;;;;;;;4963604;28;20373;-70
2023/09/04 10:01:27;;;;;;;;;;;;;;;;;;4964716;28;20642;-71
2023/09/04 10:03:52;;;;;;;;;;;;;;;;;;4978483;28;19928;-71
2023/09/04 10:06:18;;;;;;;;;;;;;;;;;;4964681;28;19918;-71
2023/09/04 10:08:43;;;;;;;;;;;;;;;;;;4965648;28;20054;-72
2023/09/04 10:11:11;;;;;;;;;;;;;;;;;;4942307;28;20821;-71
2023/09/04 10:13:38;;;;;;;;;;;;;;;;;;4979879;28;20013;-70
2023/09/04 10:16:04;;;;;;;;;;;;;;;;;;4978848;28;19973;-70
2023/09/04 10:18:29;;;;;;;;;;;;;;;;;;4981244;28;20464;-72
2023/09/04 10:20:55;;;;;;;;;;;;;;;;;;4964152;28;19922;-71
2023/09/04 10:23:20;;;;;;;;;;;;;;;;;;4943808;28;21075;-72
2023/09/04 10:25:45;;;;;;;;;;;;;;;;;;4979893;28;19972;-71
2023/09/04 10:28:11;;;;;;;;;;;;;;;;;;4980736;28;19929;-72
2023/09/04 10:30:37;;;;;;;;;;;;;;;;;;4979911;28;19930;-71
2023/09/04 10:33:02;;;;;;;;;;;;;;;;;;4978762;28;19922;-70
2023/09/04 10:35:30;;;;;;;;;;;;;;;;;;4943965;28;19921;-69
2023/09/04 10:37:55;;;;;;;;;;;;;;;;;;4945296;28;19985;-70
2023/09/04 10:40:23;;;;;;;;;;;;;;;;;;4947866;28;19932;-70
2023/09/04 10:42:48;;;;;;;;;;;;;;;;;;4949963;28;19922;-68
2023/09/04 10:45:14;;;;;;;;;;;;;;;;;;4967200;28;19965;-71
2023/09/04 10:47:39;;;;;;;;;;;;;;;;;;4962620;28;19996;-72
2023/09/04 10:50:05;;;;;;;;;;;;;;;;;;4980345;28;19925;-69
2023/09/04 10:52:32;;;;;;;;;;;;;;;;;;4943998;28;19967;-69
2023/09/04 10:54:57;;;;;;;;;;;;;;;;;;4966295;28;20425;-69
2023/09/04 10:57:23;;;;;;;;;;;;;;;;;;4943418;28;20045;-73
2023/09/04 10:59:48;;;;;;;;;;;;;;;;;;4979320;28;19922;-73
2023/09/04 11:02:13;;;;;;;;;;;;;;;;;;4943051;28;20312;-74
2023/09/04 11:04:39;;;;;;;;;;;;;;;;;;4979237;28;19968;-73
2023/09/04 11:07:04;;;;;;;;;;;;;;;;;;4979296;28;20020;-73
2023/09/04 11:09:29;;;;;;;;;;;;;;;;;;4963682;28;19953;-70
2023/09/04 11:11:54;;;;;;;;;;;;;;;;;;4978865;28;20092;-73
2023/09/04 11:14:20;;;;;;;;;;;;;;;;;;4964222;28;19922;-73
2023/09/04 11:16:48;;;;;;;;;;;;;;;;;;4978862;28;20647;-72
2023/09/04 11:19:14;;;;;;;;;;;;;;;;;;4942862;28;19925;-72
2023/09/04 11:21:39;;;;;;;;;;;;;;;;;;4963475;28;19937;-73
2023/09/04 11:24:05;;;;;;;;;;;;;;;;;;4980047;28;19928;-72
2023/09/04 11:26:30;;;;;;;;;;;;;;;;;;4961924;28;19921;-72
2023/09/04 11:28:55;;;;;;;;;;;;;;;;;;4964209;28;19918;-72
2023/09/04 11:31:21;;;;;;;;;;;;;;;;;;4946855;28;19926;-73
2023/09/04 11:33:47;;;;;;;;;;;;;;;;;;4947632;28;19957;-73
2023/09/04 11:36:12;;;;;;;;;;;;;;;;;;4964591;28;20725;-73
2023/09/04 11:38:38;;;;;;;;;;;;;;;;;;4962253;28;19922;-71
2023/09/04 11:41:05;;;;;;;;;;;;;;;;;;4961076;28;19922;-73
2023/09/04 11:43:30;;;;;;;;;;;;;;;;;;4979746;28;19937;-73
2023/09/04 11:45:59;;;;;;;;;;;;;;;;;;4964495;28;19951;-74
2023/09/04 11:48:24;;;;;;;;;;;;;;;;;;4981620;28;19921;-74
2023/09/04 11:50:53;;;;;;;;;;;;;;;;;;4947224;28;19921;-75
2023/09/04 11:53:18;;;;;;;;;;;;;;;;;;4980902;28;20479;-74
2023/09/04 11:55:47;;;;;;;;;;;;;;;;;;4953007;28;19944;-74
2023/09/04 11:58:12;;;;;;;;;;;;;;;;;;4963840;28;20488;-74
2023/09/04 12:00:40;;;;;;;;;;;;;;;;;;4965721;28;20917;-74
2023/09/04 12:03:05;;;;;;;;;;;;;;;;;;4943514;28;20742;-73
2023/09/04 12:05:33;;;;;;;;;;;;;;;;;;4967513;28;19948;-75
2023/09/04 12:07:58;;;;;;;;;;;;;;;;;;4966251;28;19989;-72
2023/09/04 12:10:23;;;;;;;;;;;;;;;;;;4981737;28;20351;-73
2023/09/04 12:12:49;;;;;;;;;;;;;;;;;;4981362;28;19961;-72
2023/09/04 12:15:16;;;;;;;;;;;;;;;;;;4964213;28;19918;-72
2023/09/04 12:17:44;;;;;;;;;;;;;;;;;;4959082;28;20588;-72
2023/09/04 12:20:09;;;;;;;;;;;;;;;;;;4978080;28;19948;-72
2023/09/04 12:22:35;;;;;;;;;;;;;;;;;;4967666;28;19918;-73
2023/09/04 12:25:00;;;;;;;;;;;;;;;;;;4947449;28;19948;-73
2023/09/04 12:27:25;;;;;;;;;;;;;;;;;;4966212;28;19922;-73
2023/09/04 12:29:51;;;;;;;;;;;;;;;;;;4947922;28;19926;-73
2023/09/04 12:32:16;;;;;;;;;;;;;;;;;;4962667;28;21080;-74
2023/09/04 12:34:41;;;;;;;;;;;;;;;;;;4966367;28;19957;-72
2023/09/04 12:37:07;;;;;;;;;;;;;;;;;;4965777;28;20017;-72
2023/09/04 12:39:32;;;;;;;;;;;;;;;;;;4950433;28;19922;-72
2023/09/04 12:41:58;;;;;;;;;;;;;;;;;;4966199;28;19940;-74
2023/09/04 12:44:23;;;;;;;;;;;;;;;;;;4965845;28;20037;-73
2023/09/04 12:46:51;;;;;;;;;;;;;;;;;;4966740;28;19953;-71
2023/09/04 12:49:16;;;;;;;;;;;;;;;;;;4964918;28;22981;-72
2023/09/04 12:51:42;;;;;;;;;;;;;;;;;;4965427;28;19926;-72
2023/09/04 12:54:07;;;;;;;;;;;;;;;;;;4967288;28;19917;-72
2023/09/04 12:56:34;;;;;;;;;;;;;;;;;;4964695;28;20009;-73
2023/09/04 12:59:02;;;;;;;;;;;;;;;;;;4966278;28;19928;-71
2023/09/04 13:01:28;;;;;;;;;;;;;;;;;;4968137;28;20304;-72
2023/09/04 13:03:54;;;;;;;;;;;;;;;;;;4965117;28;19930;-73
2023/09/04 13:06:19;;;;;;;;;;;;;;;;;;4965272;28;19925;-73
2023/09/04 13:08:44;;;;;;;;;;;;;;;;;;4945249;28;19921;-72
2023/09/04 13:11:10;;;;;;;;;;;;;;;;;;4966185;28;20862;-73
2023/09/04 13:13:38;;;;;;;;;;;;;;;;;;4964644;28;21664;-73
2023/09/04 13:16:03;;;;;;;;;;;;;;;;;;4962708;28;20838;-72
2023/09/04 13:18:34;;;;;;;;;;;;;;;;;;4980143;28;19918;-72
2023/09/04 13:21:02;;;;;;;;;;;;;;;;;;4979722;28;20274;-72
2023/09/04 13:23:27;;;;;;;;;;;;;;;;;;4945628;28;21095;-73
2023/09/04 13:25:53;;;;;;;;;;;;;;;;;;4945992;28;19918;-72
2023/09/04 13:28:18;;;;;;;;;;;;;;;;;;4979202;28;19933;-72
2023/09/04 13:30:43;;;;;;;;;;;;;;;;;;4946109;28;20379;-73
2023/09/04 13:33:08;;;;;;;;;;;;;;;;;;4943742;28;21900;-72
2023/09/04 13:35:34;;;;;;;;;;;;;;;;;;4963624;28;20372;-72
2023/09/04 13:38:01;;;;;;;;;;;;;;;;;;4963861;28;20743;-73
2023/09/04 13:40:27;;;;;;;;;;;;;;;;;;4965974;28;20024;-71
2023/09/04 13:42:52;;;;;;;;;;;;;;;;;;4945135;28;19929;-72
2023/09/04 13:45:18;;;;;;;;;;;;;;;;;;4964840;28;19917;-71
2023/09/04 13:47:43;;;;;;;;;;;;;;;;;;4963864;28;19922;-72
2023/09/04 13:50:09;;;;;;;;;;;;;;;;;;4944335;28;20372;-72
2023/09/04 13:52:34;;;;;;;;;;;;;;;;;;4945092;28;19926;-71
2023/09/04 13:54:59;;;;;;;;;;;;;;;;;;4945175;28;19929;-70
2023/09/04 13:57:27;;;;;;;;;;;;;;;;;;4979404;28;20379;-71
2023/09/04 13:59:55;;;;;;;;;;;;;;;;;;4980133;28;19961;-74
2023/09/04 14:02:21;;;;;;;;;;;;;;;;;;4964316;28;19922;-71
2023/09/04 14:04:46;;;;;;;;;;;;;;;;;;4980829;28;19984;-71
2023/09/04 14:07:11;;;;;;;;;;;;;;;;;;4961331;28;20013;-71
2023/09/04 14:09:37;;;;;;;;;;;;;;;;;;4962890;28;20812;-71
2023/09/04 14:12:02;;;;;;;;;;;;;;;;;;4980693;28;20415;-72
2023/09/04 14:14:28;;;;;;;;;;;;;;;;;;4979220;28;19953;-71
2023/09/04 14:16:53;;;;;;;;;;;;;;;;;;4980561;28;19922;-71
2023/09/04 14:19:19;;;;;;;;;;;;;;;;;;4948301;28;19918;-71
2023/09/04 14:21:44;;;;;;;;;;;;;;;;;;4966191;28;22086;-70
2023/09/04 14:24:09;;;;;;;;;;;;;;;;;;4962386;28;20012;-71
2023/09/04 14:26:35;;;;;;;;;;;;;;;;;;4943021;28;19922;-70
2023/09/04 14:29:03;;;;;;;;;;;;;;;;;;4964793;28;19977;-72
2023/09/04 14:31:29;;;;;;;;;;;;;;;;;;4964786;28;20946;-71
2023/09/04 14:33:54;;;;;;;;;;;;;;;;;;4963042;28;20352;-71
2023/09/04 14:36:19;;;;;;;;;;;;;;;;;;4978907;28;19941;-70
2023/09/04 14:38:45;;;;;;;;;;;;;;;;;;4980450;28;20691;-73
2023/09/04 14:41:28;;;;;;;;;;;;;;;;;;4945061;28;19922;-71
2023/09/04 14:43:53;;;;;;;;;;;;;;;;;;4979848;28;19972;-70
2023/09/04 14:46:21;;;;;;;;;;;;;;;;;;4978801;28;19926;-71
2023/09/04 14:48:49;;;;;;;;;;;;;;;;;;4944345;28;19930;-72
2023/09/04 14:51:14;;;;;;;;;;;;;;;;;;4964184;28;20375;-70
2023/09/04 14:53:40;;;;;;;;;;;;;;;;;;4963508;28;20523;-71
2023/09/04 14:56:08;;;;;;;;;;;;;;;;;;4965747;28;19928;-71
2023/09/04 14:58:33;;;;;;;;;;;;;;;;;;4964877;28;19926;-69
2023/09/04 15:01:03;;;;;;;;;;;;;;;;;;4979689;28;19918;-71
2023/09/04 15:03:28;;;;;;;;;;;;;;;;;;4962749;28;20049;-71
2023/09/04 15:05:54;;;;;;;;;;;;;;;;;;4963853;28;19918;-70
2023/09/04 15:08:19;;;;;;;;;;;;;;;;;;4949594;28;19929;-70
2023/09/04 15:10:44;;;;;;;;;;;;;;;;;;4963117;28;20326;-70
2023/09/04 15:13:10;;;;;;;;;;;;;;;;;;4962636;28;19925;-71
2023/09/04 15:15:38;;;;;;;;;;;;;;;;;;4962928;28;19926;-71
2023/09/04 15:18:03;;;;;;;;;;;;;;;;;;4943441;28;20388;-70
2023/09/04 15:20:28;;;;;;;;;;;;;;;;;;4978211;28;19925;-70
2023/09/04 15:22:54;;;;;;;;;;;;;;;;;;4945706;28;19925;-70
2023/09/04 15:25:19;;;;;;;;;;;;;;;;;;4948630;28;21964;-69
2023/09/04 15:27:45;;;;;;;;;;;;;;;;;;4965041;28;19922;-70
2023/09/04 15:30:10;;;;;;;;;;;;;;;;;;4983613;28;20016;-69
2023/09/04 15:32:35;;;;;;;;;;;;;;;;;;4982503;28;20029;-69
2023/09/04 15:35:01;;;;;;;;;;;;;;;;;;4968565;28;19925;-69
2023/09/04 15:37:26;;;;;;;;;;;;;;;;;;4966820;28;19922;-69
2023/09/04 15:39:54;;;;;;;;;;;;;;;;;;4966711;28;20033;-69
2023/09/04 15:42:19;;;;;;;;;;;;;;;;;;4970105;28;19929;-69
2023/09/04 15:44:45;;;;;;;;;;;;;;;;;;4982900;28;19922;-69
2023/09/04 15:47:15;;;;;;;;;;;;;;;;;;4982211;28;20976;-69
2023/09/04 15:49:40;;;;;;;;;;;;;;;;;;4982555;28;19929;-69
2023/09/04 15:52:05;;;;;;;;;;;;;;;;;;4947343;28;19925;-69
2023/09/04 15:54:33;;;;;;;;;;;;;;;;;;4981913;28;19921;-70
2023/09/04 15:57:05;;;;;;;;;;;;;;;;;;4967704;28;19932;-70
2023/09/04 15:59:30;;;;;;;;;;;;;;;;;;4982925;28;19958;-69
2023/09/04 16:01:56;;;;;;;;;;;;;;;;;;4966142;28;20056;-70
2023/09/04 16:04:21;;;;;;;;;;;;;;;;;;4982178;28;20514;-71
2023/09/04 16:06:46;;;;;;;;;;;;;;;;;;4979405;28;20489;-71
2023/09/04 16:09:12;;;;;;;;;;;;;;;;;;4966850;28;20059;-70
2023/09/04 16:11:39;;;;;;;;;;;;;;;;;;4980590;28;19921;-69
2023/09/04 16:14:14;;;;;;;;;;;;;;;;;;4980314;28;19921;-69
2023/09/04 16:16:42;;;;;;;;;;;;;;;;;;4981681;28;19993;-69
2023/09/04 16:19:12;;;;;;;;;;;;;;;;;;4951958;28;19972;-72
2023/09/04 16:21:40;;;;;;;;;;;;;;;;;;4983128;28;20040;-70
2023/09/04 16:24:06;;;;;;;;;;;;;;;;;;4981103;28;19918;-70
2023/09/04 16:26:32;;;;;;;;;;;;;;;;;;4966917;28;20867;-69
2023/09/04 16:29:00;;;;;;;;;;;;;;;;;;4979041;28;19918;-68
2023/09/04 16:31:29;;;;;;;;;;;;;;;;;;4967997;28;19933;-69
2023/09/04 16:33:57;;;;;;;;;;;;;;;;;;4963922;28;19918;-70
2023/09/04 16:36:22;;;;;;;;;;;;;;;;;;4964560;28;19996;-70
2023/09/04 16:38:48;;;;;;;;;;;;;;;;;;4965695;28;20459;-69
2023/09/04 16:41:17;;;;;;;;;;;;;;;;;;4966177;28;21826;-70
2023/09/04 16:43:45;;;;;;;;;;;;;;;;;;4980685;28;19922;-70